sensor_id;sensor_type;location;lat;lon;timestamp;P1;durP1;ratioP1;P2;durP2;ratioP2
3779;SDS011;1905;52.482;9.802;2022-11-20T00:00:51;13.40;;;8.20;;
3779;SDS011;1905;52.482;9.802;2022-11-20T00:03:19;8.90;;;6.20;;
3779;SDS011;1905;52.482;9.802;2022-11-20T00:05:47;12.97;;;8.67;;
3779;SDS011;1905;52.482;9.802;2022-11-20T00:08:14;11.67;;;8.07;;
3779;SDS011;1905;52.482;9.802;2022-11-20T00:10:42;10.50;;;5.73;;
3779;SDS011;1905;52.482;9.802;2022-11-20T00:13:10;12.13;;;7.00;;
3779;SDS011;1905;52.482;9.802;2022-11-20T00:15:39;15.60;;;8.53;;
3779;SDS011;1905;52.482;9.802;2022-11-20T00:18:06;10.30;;;7.30;;
3779;SDS011;1905;52.482;9.802;2022-11-20T00:20:34;12.80;;;8.43;;
3779;SDS011;1905;52.482;9.802;2022-11-20T00:23:01;18.77;;;8.00;;
3779;SDS011;1905;52.482;9.802;2022-11-20T00:25:29;14.27;;;8.20;;
3779;SDS011;1905;52.482;9.802;2022-11-20T00:27:57;14.20;;;8.57;;
3779;SDS011;1905;52.482;9.802;2022-11-20T00:30:24;18.80;;;8.27;;
3779;SDS011;1905;52.482;9.802;2022-11-20T00:32:53;14.40;;;7.60;;
3779;SDS011;1905;52.482;9.802;2022-11-20T00:35:23;17.60;;;7.90;;
3779;SDS011;1905;52.482;9.802;2022-11-20T00:37:51;10.53;;;7.17;;
3779;SDS011;1905;52.482;9.802;2022-11-20T00:40:19;13.90;;;7.87;;
3779;SDS011;1905;52.482;9.802;2022-11-20T00:42:46;15.07;;;8.00;;
3779;SDS011;1905;52.482;9.802;2022-11-20T00:45:14;11.50;;;8.57;;
3779;SDS011;1905;52.482;9.802;2022-11-20T00:47:42;11.90;;;6.90;;
3779;SDS011;1905;52.482;9.802;2022-11-20T00:50:11;13.00;;;7.70;;
3779;SDS011;1905;52.482;9.802;2022-11-20T00:52:38;10.47;;;7.40;;
3779;SDS011;1905;52.482;9.802;2022-11-20T00:55:06;8.63;;;7.30;;
3779;SDS011;1905;52.482;9.802;2022-11-20T00:57:34;13.07;;;7.83;;
3779;SDS011;1905;52.482;9.802;2022-11-20T01:00:02;13.17;;;7.50;;
3779;SDS011;1905;52.482;9.802;2022-11-20T01:02:30;6.67;;;6.00;;
3779;SDS011;1905;52.482;9.802;2022-11-20T01:04:59;15.30;;;8.40;;
3779;SDS011;1905;52.482;9.802;2022-11-20T01:07:28;15.20;;;7.87;;
3779;SDS011;1905;52.482;9.802;2022-11-20T01:09:55;12.40;;;7.00;;
3779;SDS011;1905;52.482;9.802;2022-11-20T01:12:23;8.53;;;6.13;;
3779;SDS011;1905;52.482;9.802;2022-11-20T01:14:50;14.93;;;6.90;;
3779;SDS011;1905;52.482;9.802;2022-11-20T01:17:18;9.30;;;6.70;;
3779;SDS011;1905;52.482;9.802;2022-11-20T01:19:48;10.50;;;7.10;;
3779;SDS011;1905;52.482;9.802;2022-11-20T01:22:16;9.57;;;6.77;;
3779;SDS011;1905;52.482;9.802;2022-11-20T01:24:45;11.90;;;6.67;;
3779;SDS011;1905;52.482;9.802;2022-11-20T01:27:12;13.27;;;7.63;;
3779;SDS011;1905;52.482;9.802;2022-11-20T01:29:40;13.50;;;8.27;;
3779;SDS011;1905;52.482;9.802;2022-11-20T01:32:07;12.13;;;7.90;;
3779;SDS011;1905;52.482;9.802;2022-11-20T01:34:35;9.60;;;7.30;;
3779;SDS011;1905;52.482;9.802;2022-11-20T01:37:02;15.33;;;8.73;;
3779;SDS011;1905;52.482;9.802;2022-11-20T01:39:30;15.20;;;8.43;;
3779;SDS011;1905;52.482;9.802;2022-11-20T01:41:59;11.00;;;7.20;;
3779;SDS011;1905;52.482;9.802;2022-11-20T01:44:47;10.17;;;7.00;;
3779;SDS011;1905;52.482;9.802;2022-11-20T01:47:30;12.70;;;7.87;;
3779;SDS011;1905;52.482;9.802;2022-11-20T01:50:03;12.87;;;6.63;;
3779;SDS011;1905;52.482;9.802;2022-11-20T01:52:34;14.70;;;7.50;;
3779;SDS011;1905;52.482;9.802;2022-11-20T01:55:06;9.97;;;6.07;;
3779;SDS011;1905;52.482;9.802;2022-11-20T01:57:37;11.17;;;6.50;;
3779;SDS011;1905;52.482;9.802;2022-11-20T02:00:07;13.17;;;7.67;;
3779;SDS011;1905;52.482;9.802;2022-11-20T02:02:38;12.30;;;8.00;;
3779;SDS011;1905;52.482;9.802;2022-11-20T02:05:10;10.13;;;6.47;;
3779;SDS011;1905;52.482;9.802;2022-11-20T02:07:44;10.10;;;6.60;;
3779;SDS011;1905;52.482;9.802;2022-11-20T02:10:13;11.77;;;7.30;;
3779;SDS011;1905;52.482;9.802;2022-11-20T02:12:42;9.03;;;6.60;;
3779;SDS011;1905;52.482;9.802;2022-11-20T02:15:27;9.80;;;7.00;;
3779;SDS011;1905;52.482;9.802;2022-11-20T02:17:55;8.70;;;6.63;;
3779;SDS011;1905;52.482;9.802;2022-11-20T02:20:23;8.70;;;6.30;;
3779;SDS011;1905;52.482;9.802;2022-11-20T02:22:53;10.40;;;7.60;;
3779;SDS011;1905;52.482;9.802;2022-11-20T02:25:25;9.90;;;6.30;;
3779;SDS011;1905;52.482;9.802;2022-11-20T02:27:55;7.30;;;6.00;;
3779;SDS011;1905;52.482;9.802;2022-11-20T02:30:23;10.50;;;6.17;;
3779;SDS011;1905;52.482;9.802;2022-11-20T02:32:51;9.33;;;6.47;;
3779;SDS011;1905;52.482;9.802;2022-11-20T02:35:41;14.00;;;7.43;;
3779;SDS011;1905;52.482;9.802;2022-11-20T02:38:11;11.87;;;7.20;;
3779;SDS011;1905;52.482;9.802;2022-11-20T02:40:41;12.90;;;6.80;;
3779;SDS011;1905;52.482;9.802;2022-11-20T02:43:09;9.20;;;7.80;;
3779;SDS011;1905;52.482;9.802;2022-11-20T02:45:37;9.10;;;5.83;;
3779;SDS011;1905;52.482;9.802;2022-11-20T02:48:05;9.80;;;6.17;;
3779;SDS011;1905;52.482;9.802;2022-11-20T02:50:36;9.87;;;6.63;;
3779;SDS011;1905;52.482;9.802;2022-11-20T02:53:04;12.53;;;6.20;;
3779;SDS011;1905;52.482;9.802;2022-11-20T02:55:33;9.23;;;6.90;;
3779;SDS011;1905;52.482;9.802;2022-11-20T02:58:02;10.20;;;6.47;;
3779;SDS011;1905;52.482;9.802;2022-11-20T03:00:29;10.13;;;6.13;;
3779;SDS011;1905;52.482;9.802;2022-11-20T03:02:58;10.60;;;6.60;;
3779;SDS011;1905;52.482;9.802;2022-11-20T03:05:25;12.50;;;6.77;;
3779;SDS011;1905;52.482;9.802;2022-11-20T03:07:53;10.83;;;6.30;;
3779;SDS011;1905;52.482;9.802;2022-11-20T03:10:20;10.97;;;6.80;;
3779;SDS011;1905;52.482;9.802;2022-11-20T03:12:52;15.20;;;7.07;;
3779;SDS011;1905;52.482;9.802;2022-11-20T03:15:21;11.30;;;6.60;;
3779;SDS011;1905;52.482;9.802;2022-11-20T03:17:49;8.50;;;6.00;;
3779;SDS011;1905;52.482;9.802;2022-11-20T03:20:20;12.80;;;6.20;;
3779;SDS011;1905;52.482;9.802;2022-11-20T03:22:47;8.73;;;6.30;;
3779;SDS011;1905;52.482;9.802;2022-11-20T03:25:15;9.37;;;7.30;;
3779;SDS011;1905;52.482;9.802;2022-11-20T03:27:43;9.90;;;6.60;;
3779;SDS011;1905;52.482;9.802;2022-11-20T03:30:11;10.30;;;6.60;;
3779;SDS011;1905;52.482;9.802;2022-11-20T03:32:41;11.43;;;6.87;;
3779;SDS011;1905;52.482;9.802;2022-11-20T03:35:08;9.60;;;6.90;;
3779;SDS011;1905;52.482;9.802;2022-11-20T03:37:36;8.30;;;6.73;;
3779;SDS011;1905;52.482;9.802;2022-11-20T03:40:04;12.60;;;6.10;;
3779;SDS011;1905;52.482;9.802;2022-11-20T03:42:33;8.43;;;5.67;;
3779;SDS011;1905;52.482;9.802;2022-11-20T03:45:13;7.17;;;5.87;;
3779;SDS011;1905;52.482;9.802;2022-11-20T03:47:42;7.03;;;6.30;;
3779;SDS011;1905;52.482;9.802;2022-11-20T03:50:10;10.20;;;5.50;;
3779;SDS011;1905;52.482;9.802;2022-11-20T03:52:39;10.17;;;6.23;;
3779;SDS011;1905;52.482;9.802;2022-11-20T03:55:08;11.37;;;7.77;;
3779;SDS011;1905;52.482;9.802;2022-11-20T03:57:35;10.47;;;6.70;;
3779;SDS011;1905;52.482;9.802;2022-11-20T04:00:03;8.50;;;6.13;;
3779;SDS011;1905;52.482;9.802;2022-11-20T04:02:32;8.40;;;6.30;;
3779;SDS011;1905;52.482;9.802;2022-11-20T04:05:00;6.37;;;5.00;;
3779;SDS011;1905;52.482;9.802;2022-11-20T04:07:28;6.00;;;4.93;;
3779;SDS011;1905;52.482;9.802;2022-11-20T04:09:56;10.50;;;6.50;;
3779;SDS011;1905;52.482;9.802;2022-11-20T04:12:24;8.23;;;5.93;;
3779;SDS011;1905;52.482;9.802;2022-11-20T04:14:51;5.73;;;4.63;;
3779;SDS011;1905;52.482;9.802;2022-11-20T04:17:19;12.80;;;6.60;;
3779;SDS011;1905;52.482;9.802;2022-11-20T04:19:49;9.30;;;5.67;;
3779;SDS011;1905;52.482;9.802;2022-11-20T04:22:18;8.87;;;5.80;;
3779;SDS011;1905;52.482;9.802;2022-11-20T04:24:46;10.40;;;5.90;;
3779;SDS011;1905;52.482;9.802;2022-11-20T04:27:16;9.00;;;6.13;;
3779;SDS011;1905;52.482;9.802;2022-11-20T04:29:44;10.50;;;5.60;;
3779;SDS011;1905;52.482;9.802;2022-11-20T04:32:11;8.10;;;5.13;;
3779;SDS011;1905;52.482;9.802;2022-11-20T04:34:39;10.63;;;7.00;;
3779;SDS011;1905;52.482;9.802;2022-11-20T04:37:06;13.00;;;6.37;;
3779;SDS011;1905;52.482;9.802;2022-11-20T04:39:35;8.13;;;5.53;;
3779;SDS011;1905;52.482;9.802;2022-11-20T04:42:03;8.30;;;5.10;;
3779;SDS011;1905;52.482;9.802;2022-11-20T04:44:48;12.00;;;6.47;;
3779;SDS011;1905;52.482;9.802;2022-11-20T04:47:16;8.43;;;5.47;;
3779;SDS011;1905;52.482;9.802;2022-11-20T04:49:44;9.77;;;5.17;;
3779;SDS011;1905;52.482;9.802;2022-11-20T04:52:11;9.20;;;5.53;;
3779;SDS011;1905;52.482;9.802;2022-11-20T04:54:41;8.70;;;5.50;;
3779;SDS011;1905;52.482;9.802;2022-11-20T04:57:08;5.50;;;4.90;;
3779;SDS011;1905;52.482;9.802;2022-11-20T04:59:40;7.50;;;5.70;;
3779;SDS011;1905;52.482;9.802;2022-11-20T05:02:07;8.10;;;5.13;;
3779;SDS011;1905;52.482;9.802;2022-11-20T05:04:35;10.33;;;5.20;;
3779;SDS011;1905;52.482;9.802;2022-11-20T05:07:03;7.17;;;5.67;;
3779;SDS011;1905;52.482;9.802;2022-11-20T05:09:31;7.40;;;5.03;;
3779;SDS011;1905;52.482;9.802;2022-11-20T05:12:00;11.33;;;5.87;;
3779;SDS011;1905;52.482;9.802;2022-11-20T05:14:27;9.07;;;5.10;;
3779;SDS011;1905;52.482;9.802;2022-11-20T05:16:55;8.33;;;5.13;;
3779;SDS011;1905;52.482;9.802;2022-11-20T05:19:23;5.83;;;4.97;;
3779;SDS011;1905;52.482;9.802;2022-11-20T05:21:50;9.63;;;4.90;;
3779;SDS011;1905;52.482;9.802;2022-11-20T05:24:18;9.83;;;5.30;;
3779;SDS011;1905;52.482;9.802;2022-11-20T05:26:45;8.40;;;5.57;;
3779;SDS011;1905;52.482;9.802;2022-11-20T05:29:14;6.37;;;5.33;;
3779;SDS011;1905;52.482;9.802;2022-11-20T05:31:42;7.70;;;4.87;;
3779;SDS011;1905;52.482;9.802;2022-11-20T05:34:10;10.33;;;5.20;;
3779;SDS011;1905;52.482;9.802;2022-11-20T05:36:37;7.73;;;4.63;;
3779;SDS011;1905;52.482;9.802;2022-11-20T05:39:05;6.67;;;5.50;;
3779;SDS011;1905;52.482;9.802;2022-11-20T05:41:33;4.83;;;4.33;;
3779;SDS011;1905;52.482;9.802;2022-11-20T05:44:00;5.83;;;5.00;;
3779;SDS011;1905;52.482;9.802;2022-11-20T05:46:29;7.60;;;5.00;;
3779;SDS011;1905;52.482;9.802;2022-11-20T05:48:57;7.30;;;6.40;;
3779;SDS011;1905;52.482;9.802;2022-11-20T05:51:25;11.53;;;5.70;;
3779;SDS011;1905;52.482;9.802;2022-11-20T05:53:53;9.40;;;4.60;;
3779;SDS011;1905;52.482;9.802;2022-11-20T05:56:23;7.13;;;4.53;;
3779;SDS011;1905;52.482;9.802;2022-11-20T05:58:51;5.30;;;4.77;;
3779;SDS011;1905;52.482;9.802;2022-11-20T06:01:20;9.33;;;5.20;;
3779;SDS011;1905;52.482;9.802;2022-11-20T06:03:50;6.33;;;4.27;;
3779;SDS011;1905;52.482;9.802;2022-11-20T06:06:20;9.37;;;4.93;;
3779;SDS011;1905;52.482;9.802;2022-11-20T06:08:48;10.37;;;5.33;;
3779;SDS011;1905;52.482;9.802;2022-11-20T06:11:16;8.13;;;4.83;;
3779;SDS011;1905;52.482;9.802;2022-11-20T06:13:44;7.70;;;4.63;;
3779;SDS011;1905;52.482;9.802;2022-11-20T06:16:13;8.00;;;5.27;;
3779;SDS011;1905;52.482;9.802;2022-11-20T06:18:42;7.30;;;5.50;;
3779;SDS011;1905;52.482;9.802;2022-11-20T06:21:11;8.47;;;4.83;;
3779;SDS011;1905;52.482;9.802;2022-11-20T06:23:41;6.30;;;4.57;;
3779;SDS011;1905;52.482;9.802;2022-11-20T06:26:11;7.17;;;5.07;;
3779;SDS011;1905;52.482;9.802;2022-11-20T06:28:41;11.03;;;5.53;;
3779;SDS011;1905;52.482;9.802;2022-11-20T06:31:09;7.53;;;4.40;;
3779;SDS011;1905;52.482;9.802;2022-11-20T06:33:38;5.83;;;5.17;;
3779;SDS011;1905;52.482;9.802;2022-11-20T06:36:06;4.53;;;4.10;;
3779;SDS011;1905;52.482;9.802;2022-11-20T06:38:38;7.83;;;5.00;;
3779;SDS011;1905;52.482;9.802;2022-11-20T06:41:06;7.00;;;5.00;;
3779;SDS011;1905;52.482;9.802;2022-11-20T06:43:37;6.63;;;4.87;;
3779;SDS011;1905;52.482;9.802;2022-11-20T06:46:04;6.37;;;4.10;;
3779;SDS011;1905;52.482;9.802;2022-11-20T06:48:32;9.87;;;4.83;;
3779;SDS011;1905;52.482;9.802;2022-11-20T06:51:00;9.87;;;4.90;;
3779;SDS011;1905;52.482;9.802;2022-11-20T06:53:30;7.27;;;4.23;;
3779;SDS011;1905;52.482;9.802;2022-11-20T06:56:00;9.73;;;4.80;;
3779;SDS011;1905;52.482;9.802;2022-11-20T06:58:28;9.43;;;5.20;;
3779;SDS011;1905;52.482;9.802;2022-11-20T07:00:57;9.50;;;5.13;;
3779;SDS011;1905;52.482;9.802;2022-11-20T07:03:25;7.93;;;5.17;;
3779;SDS011;1905;52.482;9.802;2022-11-20T07:05:54;9.97;;;5.07;;
3779;SDS011;1905;52.482;9.802;2022-11-20T07:08:22;7.43;;;5.63;;
3779;SDS011;1905;52.482;9.802;2022-11-20T07:10:50;10.90;;;6.07;;
3779;SDS011;1905;52.482;9.802;2022-11-20T07:13:18;5.63;;;4.47;;
3779;SDS011;1905;52.482;9.802;2022-11-20T07:15:46;9.77;;;5.10;;
3779;SDS011;1905;52.482;9.802;2022-11-20T07:18:14;9.67;;;4.90;;
3779;SDS011;1905;52.482;9.802;2022-11-20T07:20:41;8.27;;;5.53;;
3779;SDS011;1905;52.482;9.802;2022-11-20T07:23:09;6.20;;;4.87;;
3779;SDS011;1905;52.482;9.802;2022-11-20T07:25:36;10.13;;;6.70;;
3779;SDS011;1905;52.482;9.802;2022-11-20T07:28:04;6.53;;;4.43;;
3779;SDS011;1905;52.482;9.802;2022-11-20T07:30:33;4.73;;;4.30;;
3779;SDS011;1905;52.482;9.802;2022-11-20T07:33:01;5.57;;;4.87;;
3779;SDS011;1905;52.482;9.802;2022-11-20T07:35:28;7.87;;;4.87;;
3779;SDS011;1905;52.482;9.802;2022-11-20T07:37:56;6.00;;;4.83;;
3779;SDS011;1905;52.482;9.802;2022-11-20T07:40:23;6.97;;;5.77;;
3779;SDS011;1905;52.482;9.802;2022-11-20T07:42:54;7.43;;;5.03;;
3779;SDS011;1905;52.482;9.802;2022-11-20T07:45:22;8.20;;;4.80;;
3779;SDS011;1905;52.482;9.802;2022-11-20T07:47:52;7.80;;;5.27;;
3779;SDS011;1905;52.482;9.802;2022-11-20T07:50:20;6.93;;;4.90;;
3779;SDS011;1905;52.482;9.802;2022-11-20T07:52:48;8.60;;;5.17;;
3779;SDS011;1905;52.482;9.802;2022-11-20T07:55:15;6.57;;;5.57;;
3779;SDS011;1905;52.482;9.802;2022-11-20T07:57:43;7.70;;;4.20;;
3779;SDS011;1905;52.482;9.802;2022-11-20T08:00:11;8.27;;;5.77;;
3779;SDS011;1905;52.482;9.802;2022-11-20T08:02:40;7.23;;;4.33;;
3779;SDS011;1905;52.482;9.802;2022-11-20T08:05:09;6.47;;;4.80;;
3779;SDS011;1905;52.482;9.802;2022-11-20T08:07:37;9.03;;;6.07;;
3779;SDS011;1905;52.482;9.802;2022-11-20T08:10:06;7.00;;;4.90;;
3779;SDS011;1905;52.482;9.802;2022-11-20T08:12:35;8.87;;;6.47;;
3779;SDS011;1905;52.482;9.802;2022-11-20T08:15:21;5.77;;;4.40;;
3779;SDS011;1905;52.482;9.802;2022-11-20T08:17:48;10.90;;;5.80;;
3779;SDS011;1905;52.482;9.802;2022-11-20T08:20:38;5.27;;;4.27;;
3779;SDS011;1905;52.482;9.802;2022-11-20T08:23:06;9.30;;;5.20;;
3779;SDS011;1905;52.482;9.802;2022-11-20T08:25:35;7.03;;;5.10;;
3779;SDS011;1905;52.482;9.802;2022-11-20T08:28:04;8.93;;;5.03;;
3779;SDS011;1905;52.482;9.802;2022-11-20T08:30:46;5.73;;;4.93;;
3779;SDS011;1905;52.482;9.802;2022-11-20T08:33:14;7.60;;;4.60;;
3779;SDS011;1905;52.482;9.802;2022-11-20T08:35:45;12.33;;;7.23;;
3779;SDS011;1905;52.482;9.802;2022-11-20T08:38:13;9.63;;;5.83;;
3779;SDS011;1905;52.482;9.802;2022-11-20T08:40:40;7.50;;;5.10;;
3779;SDS011;1905;52.482;9.802;2022-11-20T08:43:28;5.97;;;5.10;;
3779;SDS011;1905;52.482;9.802;2022-11-20T08:45:56;7.57;;;5.37;;
3779;SDS011;1905;52.482;9.802;2022-11-20T08:48:23;7.50;;;5.13;;
3779;SDS011;1905;52.482;9.802;2022-11-20T08:50:52;8.60;;;6.00;;
3779;SDS011;1905;52.482;9.802;2022-11-20T08:53:20;10.03;;;6.20;;
3779;SDS011;1905;52.482;9.802;2022-11-20T08:55:47;9.20;;;5.30;;
3779;SDS011;1905;52.482;9.802;2022-11-20T08:58:15;7.27;;;5.17;;
3779;SDS011;1905;52.482;9.802;2022-11-20T09:00:43;6.83;;;5.50;;
3779;SDS011;1905;52.482;9.802;2022-11-20T09:03:10;6.30;;;5.27;;
3779;SDS011;1905;52.482;9.802;2022-11-20T09:05:39;5.80;;;4.93;;
3779;SDS011;1905;52.482;9.802;2022-11-20T09:08:08;7.13;;;6.43;;
3779;SDS011;1905;52.482;9.802;2022-11-20T09:10:36;10.70;;;4.60;;
3779;SDS011;1905;52.482;9.802;2022-11-20T09:13:05;6.33;;;4.80;;
3779;SDS011;1905;52.482;9.802;2022-11-20T09:15:33;7.07;;;5.77;;
3779;SDS011;1905;52.482;9.802;2022-11-20T09:18:02;10.07;;;6.27;;
3779;SDS011;1905;52.482;9.802;2022-11-20T09:20:30;10.60;;;6.67;;
3779;SDS011;1905;52.482;9.802;2022-11-20T09:22:59;10.40;;;6.60;;
3779;SDS011;1905;52.482;9.802;2022-11-20T09:25:29;13.30;;;6.07;;
3779;SDS011;1905;52.482;9.802;2022-11-20T09:27:57;9.33;;;6.87;;
3779;SDS011;1905;52.482;9.802;2022-11-20T09:30:25;9.73;;;5.80;;
3779;SDS011;1905;52.482;9.802;2022-11-20T09:32:54;11.80;;;6.30;;
3779;SDS011;1905;52.482;9.802;2022-11-20T09:35:22;6.00;;;5.40;;
3779;SDS011;1905;52.482;9.802;2022-11-20T09:37:50;11.57;;;7.30;;
3779;SDS011;1905;52.482;9.802;2022-11-20T09:40:19;11.97;;;8.37;;
3779;SDS011;1905;52.482;9.802;2022-11-20T09:42:51;10.47;;;6.13;;
3779;SDS011;1905;52.482;9.802;2022-11-20T09:45:30;10.17;;;5.93;;
3779;SDS011;1905;52.482;9.802;2022-11-20T09:48:17;9.87;;;7.00;;
3779;SDS011;1905;52.482;9.802;2022-11-20T09:50:53;8.17;;;6.50;;
3779;SDS011;1905;52.482;9.802;2022-11-20T09:53:30;10.10;;;5.80;;
3779;SDS011;1905;52.482;9.802;2022-11-20T09:56:07;10.40;;;6.63;;
3779;SDS011;1905;52.482;9.802;2022-11-20T09:58:38;9.00;;;5.93;;
3779;SDS011;1905;52.482;9.802;2022-11-20T10:01:10;7.30;;;5.23;;
3779;SDS011;1905;52.482;9.802;2022-11-20T10:03:44;6.87;;;4.53;;
3779;SDS011;1905;52.482;9.802;2022-11-20T10:06:18;11.70;;;5.63;;
3779;SDS011;1905;52.482;9.802;2022-11-20T10:08:55;7.30;;;5.30;;
3779;SDS011;1905;52.482;9.802;2022-11-20T10:11:36;8.87;;;5.57;;
3779;SDS011;1905;52.482;9.802;2022-11-20T10:14:18;7.00;;;5.13;;
3779;SDS011;1905;52.482;9.802;2022-11-20T10:16:57;8.37;;;5.00;;
3779;SDS011;1905;52.482;9.802;2022-11-20T10:19:34;10.93;;;7.60;;
3779;SDS011;1905;52.482;9.802;2022-11-20T10:22:19;10.37;;;7.33;;
3779;SDS011;1905;52.482;9.802;2022-11-20T10:24:55;10.07;;;4.83;;
3779;SDS011;1905;52.482;9.802;2022-11-20T10:30:27;10.93;;;5.13;;
3779;SDS011;1905;52.482;9.802;2022-11-20T10:32:58;13.67;;;5.47;;
3779;SDS011;1905;52.482;9.802;2022-11-20T10:35:32;10.67;;;6.00;;
3779;SDS011;1905;52.482;9.802;2022-11-20T10:38:05;9.30;;;5.47;;
3779;SDS011;1905;52.482;9.802;2022-11-20T10:40:41;7.13;;;4.77;;
3779;SDS011;1905;52.482;9.802;2022-11-20T10:43:12;6.37;;;5.00;;
3779;SDS011;1905;52.482;9.802;2022-11-20T10:45:48;7.40;;;5.13;;
3779;SDS011;1905;52.482;9.802;2022-11-20T10:48:22;6.07;;;5.37;;
3779;SDS011;1905;52.482;9.802;2022-11-20T10:51:18;7.00;;;5.33;;
3779;SDS011;1905;52.482;9.802;2022-11-20T10:53:58;7.70;;;5.80;;
3779;SDS011;1905;52.482;9.802;2022-11-20T10:56:38;8.63;;;4.83;;
3779;SDS011;1905;52.482;9.802;2022-11-20T10:59:24;8.07;;;5.57;;
3779;SDS011;1905;52.482;9.802;2022-11-20T11:02:15;6.90;;;5.03;;
3779;SDS011;1905;52.482;9.802;2022-11-20T11:04:45;8.63;;;5.70;;
3779;SDS011;1905;52.482;9.802;2022-11-20T11:07:16;7.80;;;5.00;;
3779;SDS011;1905;52.482;9.802;2022-11-20T11:09:47;11.23;;;6.33;;
3779;SDS011;1905;52.482;9.802;2022-11-20T11:12:16;10.97;;;6.23;;
3779;SDS011;1905;52.482;9.802;2022-11-20T11:14:45;7.77;;;4.50;;
3779;SDS011;1905;52.482;9.802;2022-11-20T11:17:25;7.90;;;5.33;;
3779;SDS011;1905;52.482;9.802;2022-11-20T11:19:58;10.87;;;5.60;;
3779;SDS011;1905;52.482;9.802;2022-11-20T11:22:27;9.13;;;5.93;;
3779;SDS011;1905;52.482;9.802;2022-11-20T11:24:57;8.93;;;6.17;;
3779;SDS011;1905;52.482;9.802;2022-11-20T11:27:24;9.87;;;6.27;;
3779;SDS011;1905;52.482;9.802;2022-11-20T11:30:01;10.40;;;6.00;;
3779;SDS011;1905;52.482;9.802;2022-11-20T11:32:32;8.93;;;5.67;;
3779;SDS011;1905;52.482;9.802;2022-11-20T11:35:00;10.00;;;5.70;;
3779;SDS011;1905;52.482;9.802;2022-11-20T11:37:32;7.50;;;5.40;;
3779;SDS011;1905;52.482;9.802;2022-11-20T11:40:02;9.37;;;5.93;;
3779;SDS011;1905;52.482;9.802;2022-11-20T11:42:53;9.90;;;5.80;;
3779;SDS011;1905;52.482;9.802;2022-11-20T11:45:23;7.03;;;5.33;;
3779;SDS011;1905;52.482;9.802;2022-11-20T11:47:52;13.70;;;7.90;;
3779;SDS011;1905;52.482;9.802;2022-11-20T11:50:25;11.40;;;6.60;;
3779;SDS011;1905;52.482;9.802;2022-11-20T11:52:56;18.30;;;9.53;;
3779;SDS011;1905;52.482;9.802;2022-11-20T11:55:31;13.77;;;8.43;;
3779;SDS011;1905;52.482;9.802;2022-11-20T11:58:11;12.23;;;7.53;;
3779;SDS011;1905;52.482;9.802;2022-11-20T12:00:45;12.83;;;8.80;;
3779;SDS011;1905;52.482;9.802;2022-11-20T12:03:20;11.00;;;8.53;;
3779;SDS011;1905;52.482;9.802;2022-11-20T12:05:55;17.73;;;8.77;;
3779;SDS011;1905;52.482;9.802;2022-11-20T12:08:27;11.63;;;7.23;;
3779;SDS011;1905;52.482;9.802;2022-11-20T12:11:00;10.40;;;7.10;;
3779;SDS011;1905;52.482;9.802;2022-11-20T12:13:39;13.43;;;9.00;;
3779;SDS011;1905;52.482;9.802;2022-11-20T12:16:12;12.17;;;9.57;;
3779;SDS011;1905;52.482;9.802;2022-11-20T12:18:42;7.83;;;7.03;;
3779;SDS011;1905;52.482;9.802;2022-11-20T12:21:17;8.97;;;7.00;;
3779;SDS011;1905;52.482;9.802;2022-11-20T12:23:51;11.37;;;6.53;;
3779;SDS011;1905;52.482;9.802;2022-11-20T12:26:35;7.37;;;5.80;;
3779;SDS011;1905;52.482;9.802;2022-11-20T12:29:14;6.93;;;4.80;;
3779;SDS011;1905;52.482;9.802;2022-11-20T12:31:54;6.63;;;5.07;;
3779;SDS011;1905;52.482;9.802;2022-11-20T12:34:35;10.87;;;7.40;;
3779;SDS011;1905;52.482;9.802;2022-11-20T12:37:23;9.63;;;6.67;;
3779;SDS011;1905;52.482;9.802;2022-11-20T12:40:02;9.33;;;7.60;;
3779;SDS011;1905;52.482;9.802;2022-11-20T12:42:50;13.47;;;7.90;;
3779;SDS011;1905;52.482;9.802;2022-11-20T12:48:49;13.90;;;9.33;;
3779;SDS011;1905;52.482;9.802;2022-11-20T12:51:33;10.27;;;6.80;;
3779;SDS011;1905;52.482;9.802;2022-11-20T12:57:06;8.73;;;6.80;;
3779;SDS011;1905;52.482;9.802;2022-11-20T12:59:48;17.13;;;9.17;;
3779;SDS011;1905;52.482;9.802;2022-11-20T13:02:27;9.83;;;6.83;;
3779;SDS011;1905;52.482;9.802;2022-11-20T13:05:04;9.27;;;6.03;;
3779;SDS011;1905;52.482;9.802;2022-11-20T13:07:42;11.23;;;6.03;;
3779;SDS011;1905;52.482;9.802;2022-11-20T13:10:13;11.77;;;6.67;;
3779;SDS011;1905;52.482;9.802;2022-11-20T13:12:49;14.63;;;7.73;;
3779;SDS011;1905;52.482;9.802;2022-11-20T13:15:26;16.40;;;7.40;;
3779;SDS011;1905;52.482;9.802;2022-11-20T13:18:04;8.67;;;5.50;;
3779;SDS011;1905;52.482;9.802;2022-11-20T13:20:36;8.40;;;5.57;;
3779;SDS011;1905;52.482;9.802;2022-11-20T13:23:10;10.40;;;6.10;;
3779;SDS011;1905;52.482;9.802;2022-11-20T13:25:39;8.60;;;5.37;;
3779;SDS011;1905;52.482;9.802;2022-11-20T13:30:56;9.47;;;6.37;;
3779;SDS011;1905;52.482;9.802;2022-11-20T13:33:29;6.90;;;5.70;;
3779;SDS011;1905;52.482;9.802;2022-11-20T13:35:59;10.03;;;5.63;;
3779;SDS011;1905;52.482;9.802;2022-11-20T13:38:39;10.40;;;5.53;;
3779;SDS011;1905;52.482;9.802;2022-11-20T13:41:10;8.33;;;5.90;;
3779;SDS011;1905;52.482;9.802;2022-11-20T13:43:51;8.50;;;6.17;;
3779;SDS011;1905;52.482;9.802;2022-11-20T13:46:20;8.07;;;5.97;;
3779;SDS011;1905;52.482;9.802;2022-11-20T13:48:50;8.30;;;6.60;;
3779;SDS011;1905;52.482;9.802;2022-11-20T13:51:25;7.43;;;5.73;;
3779;SDS011;1905;52.482;9.802;2022-11-20T13:57:11;6.73;;;5.20;;
3779;SDS011;1905;52.482;9.802;2022-11-20T13:59:56;6.43;;;5.17;;
3779;SDS011;1905;52.482;9.802;2022-11-20T14:02:26;10.10;;;6.53;;
3779;SDS011;1905;52.482;9.802;2022-11-20T14:04:57;6.17;;;4.90;;
3779;SDS011;1905;52.482;9.802;2022-11-20T14:07:27;11.90;;;5.53;;
3779;SDS011;1905;52.482;9.802;2022-11-20T14:10:03;11.67;;;6.30;;
3779;SDS011;1905;52.482;9.802;2022-11-20T14:12:33;10.23;;;7.03;;
3779;SDS011;1905;52.482;9.802;2022-11-20T14:15:03;9.70;;;7.10;;
3779;SDS011;1905;52.482;9.802;2022-11-20T14:17:45;8.73;;;6.70;;
3779;SDS011;1905;52.482;9.802;2022-11-20T14:20:14;14.37;;;7.60;;
3779;SDS011;1905;52.482;9.802;2022-11-20T14:22:47;12.87;;;7.53;;
3779;SDS011;1905;52.482;9.802;2022-11-20T14:25:21;10.60;;;6.77;;
3779;SDS011;1905;52.482;9.802;2022-11-20T14:27:53;14.13;;;8.17;;
3779;SDS011;1905;52.482;9.802;2022-11-20T14:30:24;13.40;;;7.80;;
3779;SDS011;1905;52.482;9.802;2022-11-20T14:32:53;11.20;;;7.10;;
3779;SDS011;1905;52.482;9.802;2022-11-20T14:35:24;9.40;;;6.30;;
3779;SDS011;1905;52.482;9.802;2022-11-20T14:37:52;10.90;;;6.50;;
3779;SDS011;1905;52.482;9.802;2022-11-20T14:40:24;10.30;;;6.57;;
3779;SDS011;1905;52.482;9.802;2022-11-20T14:42:54;8.17;;;6.40;;
3779;SDS011;1905;52.482;9.802;2022-11-20T14:45:23;10.40;;;6.37;;
3779;SDS011;1905;52.482;9.802;2022-11-20T14:47:52;10.00;;;6.77;;
3779;SDS011;1905;52.482;9.802;2022-11-20T14:50:23;13.33;;;9.07;;
3779;SDS011;1905;52.482;9.802;2022-11-20T14:52:53;16.77;;;9.47;;
3779;SDS011;1905;52.482;9.802;2022-11-20T14:55:27;16.67;;;9.43;;
3779;SDS011;1905;52.482;9.802;2022-11-20T14:57:57;13.80;;;7.47;;
3779;SDS011;1905;52.482;9.802;2022-11-20T15:00:26;10.97;;;6.70;;
3779;SDS011;1905;52.482;9.802;2022-11-20T15:02:55;10.77;;;6.57;;
3779;SDS011;1905;52.482;9.802;2022-11-20T15:05:23;9.40;;;7.37;;
3779;SDS011;1905;52.482;9.802;2022-11-20T15:08:10;14.90;;;7.00;;
3779;SDS011;1905;52.482;9.802;2022-11-20T15:10:45;14.40;;;6.77;;
3779;SDS011;1905;52.482;9.802;2022-11-20T15:13:16;8.93;;;5.80;;
3779;SDS011;1905;52.482;9.802;2022-11-20T15:15:50;11.53;;;6.77;;
3779;SDS011;1905;52.482;9.802;2022-11-20T15:18:21;12.13;;;8.13;;
3779;SDS011;1905;52.482;9.802;2022-11-20T15:20:51;14.57;;;8.07;;
3779;SDS011;1905;52.482;9.802;2022-11-20T15:23:21;12.90;;;8.50;;
3779;SDS011;1905;52.482;9.802;2022-11-20T15:25:51;13.33;;;7.53;;
3779;SDS011;1905;52.482;9.802;2022-11-20T15:28:19;11.43;;;7.83;;
3779;SDS011;1905;52.482;9.802;2022-11-20T15:30:49;10.80;;;7.17;;
3779;SDS011;1905;52.482;9.802;2022-11-20T15:33:17;11.23;;;7.47;;
3779;SDS011;1905;52.482;9.802;2022-11-20T15:35:45;11.43;;;7.73;;
3779;SDS011;1905;52.482;9.802;2022-11-20T15:38:13;13.37;;;8.13;;
3779;SDS011;1905;52.482;9.802;2022-11-20T15:40:44;12.03;;;6.67;;
3779;SDS011;1905;52.482;9.802;2022-11-20T15:43:13;19.30;;;9.83;;
3779;SDS011;1905;52.482;9.802;2022-11-20T15:45:41;20.23;;;11.73;;
3779;SDS011;1905;52.482;9.802;2022-11-20T15:48:12;25.77;;;15.37;;